Overview Statistics Trail Chart Weather Telemetry Raw packets
 

This is the latest recevied weather packets stored in our database for station/object OE-11190. If no packets are shown the sender has not sent any weather packets the latest 10 day(s).

<< 1 2 3 4 5 >>
Time Temp. Humidity Pressure Rain* Wind** Luminosity Snow
1788395108 19.44° C 67% 1019.4 hPa 0 mm - 0 W/m² -
1788394520 20° C 66% 1019.2 hPa 0 mm - 0 W/m² -
1788393907 20° C 66% 1019.2 hPa 0 mm - 0 W/m² -
1788393307 20° C 65% 1019.3 hPa 0 mm - 0 W/m² -
1788392481 21.11° C 61% 1019.3 hPa 0 mm - 0 W/m² -
1788392107 22.22° C 48% 1019.1 hPa 0 mm - 0 W/m² -
1788391507 22.22° C 49% 1019.1 hPa 0 mm - 0 W/m² -
1788390908 22.22° C 49% 1019.1 hPa 0 mm - 0 W/m² -
1788390307 22.22° C 50% 1019.1 hPa 0 mm - 0 W/m² -
1788389708 21.67° C 51% 1019 hPa 0 mm - 0 W/m² -
1788388881 21.67° C 53% 1018.9 hPa 0 mm - 0 W/m² -
1788388508 21.67° C 56% 1018.9 hPa 0 mm - 0 W/m² -
1788387908 21.67° C 55% 1018.9 hPa 0 mm - 0 W/m² -
1788387081 22.22° C 53% 1018.9 hPa 0 mm - 0 W/m² -
1788386707 22.22° C 51% 1018.8 hPa 0 mm - 0 W/m² -
1788386107 22.22° C 51% 1018.7 hPa 0 mm - 0 W/m² -
1788385281 22.22° C 52% 1018.7 hPa 0 mm - 0 W/m² -
1788384907 22.78° C 52% 1018.6 hPa 0 mm - 0 W/m² -
1788383482 22.22° C 55% 1018.7 hPa 0 mm - 0 W/m² -
1788383108 22.22° C 57% 1018.7 hPa 0 mm - 0 W/m² -
1788382508 22.22° C 59% 1018.6 hPa 0 mm - 0 W/m² -
1788381682 22.22° C 60% 1018.6 hPa 0 mm - 0 W/m² -
1788381307 21.67° C 61% 1018.6 hPa 0 mm - 0 W/m² -
1788380708 22.22° C 60% 1018.7 hPa 0 mm - 0 W/m² -
1788379881 22.22° C 59% 1018.6 hPa 0 mm - 0 W/m² -

* Rain latest hour (hover to see other rain measurements)
** Current wind speed in m/s (hover to see current wind gust speed)